Time;durP1;ratioP1;P1;durP2;ratioP2;P2;SDS_P1;SDS_P2;PMS_P1;PMS_P2;Temp;Humidity;BMP_temperature;BMP_pressure;BME280_temperature;BME280_humidity;BME280_pressure;Samples;Min_cycle;Max_cycle;Signal;HPM_P1;HPM_P2
2022/03/08 00:01:59;;;;;;;8.10;4.72;;;0.80;99.90;;;;;;6402418;22;20036;-87
2022/03/08 00:04:27;;;;;;;8.18;4.93;;;0.70;99.90;;;;;;6374200;22;20481;-91
2022/03/08 00:06:54;;;;;;;7.85;4.65;;;0.70;99.90;;;;;;6374473;22;20014;-87
2022/03/08 00:09:20;;;;;;;8.57;4.30;;;0.60;99.90;;;;;;6349692;22;20017;-89
2022/03/08 00:11:46;;;;;;;8.23;4.80;;;0.50;99.90;;;;;;6375192;22;20017;-90
2022/03/08 00:14:12;;;;;;;8.60;5.07;;;0.40;99.90;;;;;;6348422;22;20025;-89
2022/03/08 00:16:38;;;;;;;8.32;5.10;;;0.40;99.90;;;;;;6348268;22;20150;-95
2022/03/08 00:19:09;;;;;;;9.27;4.82;;;0.20;99.90;;;;;;6375501;22;20021;-91
2022/03/08 00:21:38;;;;;;;8.32;4.80;;;0.30;99.90;;;;;;6374393;22;20029;-88
2022/03/08 00:24:04;;;;;;;9.32;5.00;;;0.20;99.90;;;;;;6374369;22;20531;-93
2022/03/08 00:26:30;;;;;;;9.80;4.77;;;0.20;99.90;;;;;;6374674;22;20021;-95
2022/03/08 00:28:56;;;;;;;7.95;4.65;;;0.30;99.90;;;;;;6374731;22;20017;-91
2022/03/08 00:31:21;;;;;;;8.48;4.95;;;0.30;99.90;;;;;;6402424;22;20101;-88
2022/03/08 00:33:47;;;;;;;9.30;4.88;;;0.30;99.90;;;;;;6402621;22;20026;-89
2022/03/08 00:36:13;;;;;;;8.20;4.97;;;0.30;99.90;;;;;;6402450;22;20017;-91
2022/03/08 00:38:39;;;;;;;7.47;4.30;;;0.20;99.90;;;;;;6374637;22;20093;-93
2022/03/08 00:41:05;;;;;;;9.02;4.97;;;0.20;99.90;;;;;;6402632;22;20464;-90
2022/03/08 00:43:31;;;;;;;9.00;4.93;;;0.20;99.90;;;;;;6374411;22;20026;-88
2022/03/08 00:45:56;;;;;;;8.23;5.13;;;0.30;99.90;;;;;;6402011;22;20046;-87
2022/03/08 00:48:22;;;;;;;9.48;5.10;;;0.30;99.90;;;;;;6349500;22;20029;-87
2022/03/08 00:50:48;;;;;;;7.82;4.88;;;0.30;99.90;;;;;;6376417;22;20017;-90
2022/03/08 00:53:14;;;;;;;10.55;5.07;;;0.30;99.90;;;;;;6404278;22;20033;-88
2022/03/08 00:55:39;;;;;;;7.93;5.10;;;0.30;99.90;;;;;;6376430;22;20431;-88
2022/03/08 00:58:07;;;;;;;8.98;5.32;;;0.30;99.90;;;;;;6375992;22;20067;-88
2022/03/08 01:00:35;;;;;;;11.43;5.45;;;0.20;99.90;;;;;;6376159;22;20060;-88
2022/03/08 01:03:01;;;;;;;9.30;5.38;;;0.30;99.90;;;;;;6376499;22;20392;-87
2022/03/08 01:05:28;;;;;;;8.63;4.90;;;0.30;99.90;;;;;;6376365;22;20046;-88
2022/03/08 01:07:54;;;;;;;8.73;5.35;;;0.20;99.90;;;;;;6376445;22;20025;-94
2022/03/08 01:10:22;;;;;;;7.47;4.90;;;0.20;99.90;;;;;;6404340;22;20396;-92
2022/03/08 01:12:49;;;;;;;8.77;5.30;;;0.20;99.90;;;;;;6376211;22;20018;-92
2022/03/08 01:15:16;;;;;;;9.77;4.93;;;0.20;99.90;;;;;;6404031;22;20086;-89
2022/03/08 01:17:42;;;;;;;9.95;5.43;;;0.20;99.90;;;;;;6404280;22;20020;-89
2022/03/08 01:20:09;;;;;;;8.18;5.28;;;0.20;99.90;;;;;;6404100;22;20053;-89
2022/03/08 01:22:35;;;;;;;10.88;5.60;;;0.20;99.90;;;;;;6376075;22;20022;-91
2022/03/08 01:25:00;;;;;;;9.45;5.68;;;0.20;99.90;;;;;;6376048;22;20351;-87
2022/03/08 01:27:26;;;;;;;9.63;5.63;;;0.20;99.90;;;;;;6349255;22;20024;-89
2022/03/08 01:29:52;;;;;;;8.55;5.65;;;0.20;99.90;;;;;;6403936;22;20018;-88
2022/03/08 01:32:18;;;;;;;10.52;5.80;;;0.10;99.90;;;;;;6375609;22;20020;-90
2022/03/08 01:34:44;;;;;;;11.07;5.85;;;0.10;99.90;;;;;;6375748;22;20026;-87
2022/03/08 01:37:11;;;;;;;9.65;5.90;;;0.10;99.90;;;;;;6375552;22;20013;-86
2022/03/08 01:39:37;;;;;;;10.27;6.30;;;0.10;99.90;;;;;;6349377;22;20024;-87
2022/03/08 01:42:11;;;;;;;10.60;5.85;;;0.00;99.90;;;;;;6404025;22;20389;-94
2022/03/08 01:44:40;;;;;;;9.32;5.75;;;0.00;99.90;;;;;;6349718;22;20029;-92
2022/03/08 01:47:06;;;;;;;10.35;6.00;;;0.00;99.90;;;;;;6375742;22;20443;-92
2022/03/08 01:49:32;;;;;;;9.20;6.25;;;0.00;99.90;;;;;;6403782;22;20021;-91
2022/03/08 01:51:58;;;;;;;9.68;6.35;;;-0.10;99.90;;;;;;6376057;22;20051;-90
2022/03/08 01:54:24;;;;;;;10.15;5.90;;;-0.10;99.90;;;;;;6349603;22;20025;-86
2022/03/08 01:56:49;;;;;;;13.43;7.00;;;0.00;99.90;;;;;;6404068;22;20036;-90
2022/03/08 01:59:15;;;;;;;9.95;6.00;;;0.00;99.90;;;;;;6403464;22;20014;-86
2022/03/08 02:04:28;;;;;;;10.13;6.18;;;0.10;99.90;;;;;;6332134;22;20444;-86
2022/03/08 02:06:54;;;;;;;11.50;6.93;;;0.00;99.90;;;;;;6286508;22;20018;-86
2022/03/08 02:09:20;;;;;;;9.23;6.72;;;0.00;99.90;;;;;;6286200;22;20065;-88
2022/03/08 02:11:47;;;;;;;12.80;7.28;;;-0.10;99.90;;;;;;6286688;22;20386;-87
2022/03/08 02:14:15;;;;;;;10.73;7.28;;;-0.10;99.90;;;;;;6286452;22;20076;-84
2022/03/08 02:16:42;;;;;;;10.82;7.30;;;-0.10;99.90;;;;;;6286663;22;20015;-89
2022/03/08 02:19:14;;;;;;;11.60;7.32;;;-0.10;99.90;;;;;;6340697;22;20056;-85
2022/03/08 02:21:40;;;;;;;10.68;6.78;;;-0.10;99.90;;;;;;6286376;22;20047;-87
2022/03/08 02:24:06;;;;;;;11.43;8.05;;;-0.10;99.90;;;;;;6286633;22;20014;-84
2022/03/08 02:26:32;;;;;;;11.27;7.50;;;-0.10;99.90;;;;;;6312279;22;20019;-86
2022/03/08 02:29:03;;;;;;;13.13;8.48;;;-0.10;99.90;;;;;;6286435;22;20080;-86
2022/03/08 02:31:30;;;;;;;11.52;7.35;;;-0.10;99.90;;;;;;6339669;22;20447;-85
2022/03/08 02:33:56;;;;;;;13.80;8.27;;;-0.10;99.90;;;;;;6286249;22;20467;-88
2022/03/08 02:36:21;;;;;;;10.63;7.93;;;-0.10;99.90;;;;;;6312088;22;20019;-87
2022/03/08 02:38:47;;;;;;;14.43;8.38;;;-0.10;99.90;;;;;;6339530;22;20023;-86
2022/03/08 02:41:13;;;;;;;11.30;7.93;;;-0.20;99.90;;;;;;6339751;22;20026;-86
2022/03/08 02:43:39;;;;;;;11.63;7.97;;;-0.20;99.90;;;;;;6339462;22;20018;-85
2022/03/08 02:46:05;;;;;;;12.80;8.65;;;-0.20;99.90;;;;;;6286233;22;20491;-86
2022/03/08 02:48:31;;;;;;;12.45;7.95;;;-0.20;99.90;;;;;;6339373;22;20019;-90
2022/03/08 02:50:57;;;;;;;14.05;8.75;;;-0.20;99.90;;;;;;6312004;22;20018;-87
2022/03/08 02:53:23;;;;;;;11.05;7.85;;;-0.20;99.90;;;;;;6311911;22;20026;-86
2022/03/08 02:55:49;;;;;;;13.05;9.15;;;-0.20;99.90;;;;;;6339752;22;20021;-86
2022/03/08 02:58:15;;;;;;;11.73;8.57;;;-0.20;99.90;;;;;;6311735;22;20400;-86
2022/03/08 03:00:41;;;;;;;12.77;8.37;;;-0.20;99.90;;;;;;6339413;22;20050;-86
2022/03/08 03:03:08;;;;;;;12.40;8.70;;;-0.20;99.90;;;;;;6311447;22;20440;-87
2022/03/08 03:05:35;;;;;;;14.98;9.43;;;-0.20;99.90;;;;;;6339340;22;20050;-86
2022/03/08 03:08:01;;;;;;;12.98;9.05;;;-0.20;99.90;;;;;;6339341;22;20029;-86
2022/03/08 03:10:27;;;;;;;12.90;8.65;;;-0.20;99.90;;;;;;6311306;22;20022;-86
2022/03/08 03:12:54;;;;;;;11.73;8.25;;;-0.20;99.90;;;;;;6339470;22;20053;-85
2022/03/08 03:15:21;;;;;;;13.80;9.20;;;-0.30;99.90;;;;;;6312066;22;20019;-89
2022/03/08 03:17:47;;;;;;;;;;;-0.30;99.90;;;;;;6312144;22;20033;-86
2022/03/08 03:20:15;;;;;;;11.63;8.35;;;-0.30;99.90;;;;;;6339242;22;19981;-88
2022/03/08 03:22:41;;;;;;;12.13;8.90;;;-0.20;99.90;;;;;;6339219;22;20022;-85
2022/03/08 03:25:08;;;;;;;12.77;8.40;;;-0.30;99.90;;;;;;6339489;22;20018;-85
2022/03/08 03:27:35;;;;;;;12.52;8.73;;;-0.30;99.90;;;;;;6338999;22;20042;-86
2022/03/08 03:30:02;;;;;;;11.32;8.70;;;-0.30;99.90;;;;;;6285817;22;20440;-85
2022/03/08 03:32:27;;;;;;;12.88;9.02;;;-0.30;99.90;;;;;;6337772;22;20451;-85
2022/03/08 03:34:53;;;;;;;15.57;9.75;;;-0.30;99.90;;;;;;6339210;22;20019;-85
2022/03/08 03:37:20;;;;;;;13.57;9.30;;;-0.40;99.90;;;;;;6339117;22;20138;-85
2022/03/08 03:39:45;;;;;;;13.45;9.10;;;-0.40;99.90;;;;;;6311597;22;20110;-85
2022/03/08 03:42:11;;;;;;;16.25;9.88;;;-0.40;99.90;;;;;;6338951;22;20054;-86
2022/03/08 03:44:37;;;;;;;13.10;9.50;;;-0.40;99.90;;;;;;6311425;22;20025;-86
2022/03/08 03:47:03;;;;;;;14.43;9.65;;;-0.40;99.90;;;;;;6285283;22;20115;-85
2022/03/08 03:49:29;;;;;;;12.27;9.48;;;-0.50;99.90;;;;;;6311226;22;20072;-85
2022/03/08 03:51:55;;;;;;;14.05;10.18;;;-0.50;99.90;;;;;;6311060;22;20019;-85
2022/03/08 03:54:21;;;;;;;13.63;10.25;;;-0.50;99.90;;;;;;6280252;22;20051;-85
2022/03/08 03:56:47;;;;;;;13.98;9.88;;;-0.50;99.90;;;;;;6284383;22;20026;-85
2022/03/08 03:59:14;;;;;;;13.85;9.85;;;-0.50;99.90;;;;;;6338815;22;20026;-86
2022/03/08 04:01:39;;;;;;;14.32;10.10;;;-0.60;99.90;;;;;;6311196;22;20026;-86
2022/03/08 04:04:05;;;;;;;16.23;10.43;;;-0.60;99.90;;;;;;6285055;22;20019;-86
2022/03/08 04:06:32;;;;;;;14.55;10.18;;;-0.60;99.90;;;;;;6285164;22;20389;-86
2022/03/08 04:08:58;;;;;;;;;;;-0.50;99.90;;;;;;6311825;22;20076;-85
2022/03/08 04:11:24;;;;;;;14.07;10.05;;;-0.60;99.90;;;;;;6311125;22;19910;-85
2022/03/08 04:13:50;;;;;;;14.48;10.52;;;-0.60;99.90;;;;;;6338695;22;20033;-85
2022/03/08 04:16:15;;;;;;;13.70;10.38;;;-0.60;99.90;;;;;;6329367;22;20018;-85
2022/03/08 04:18:41;;;;;;;14.77;10.05;;;-0.70;99.90;;;;;;6282943;22;20019;-86
2022/03/08 04:21:07;;;;;;;14.45;9.95;;;-0.70;99.90;;;;;;6327510;22;20439;-86
2022/03/08 04:23:32;;;;;;;15.48;10.07;;;-0.80;99.90;;;;;;6338014;22;20050;-86
2022/03/08 04:25:58;;;;;;;15.43;10.48;;;-0.80;99.90;;;;;;6338563;22;20018;-85
2022/03/08 04:28:24;;;;;;;14.65;10.45;;;-0.90;99.90;;;;;;6310822;22;20011;-88
2022/03/08 04:30:50;;;;;;;15.50;10.60;;;-1.00;99.90;;;;;;6336717;22;20023;-86
2022/03/08 04:33:15;;;;;;;18.13;11.80;;;-0.90;99.90;;;;;;6285535;22;20440;-88
2022/03/08 04:35:41;;;;;;;17.23;10.98;;;-1.00;99.90;;;;;;6338584;22;20068;-86
2022/03/08 04:38:07;;;;;;;17.65;10.82;;;-1.10;99.90;;;;;;6311061;22;20014;-86
2022/03/08 04:40:32;;;;;;;17.90;11.32;;;-1.00;99.90;;;;;;6333079;22;20455;-86
2022/03/08 04:42:58;;;;;;;16.08;10.93;;;-1.10;99.90;;;;;;6310957;22;20515;-85
2022/03/08 04:45:24;;;;;;;16.67;11.80;;;-1.20;99.90;;;;;;6336808;22;20101;-86
2022/03/08 04:47:49;;;;;;;16.02;11.48;;;-1.10;99.90;;;;;;6336524;22;20061;-85
2022/03/08 04:50:16;;;;;;;16.75;12.23;;;-1.00;99.90;;;;;;6338949;22;20029;-86
2022/03/08 04:52:44;;;;;;;17.30;11.75;;;-1.00;99.90;;;;;;6285165;22;20111;-85
2022/03/08 04:55:10;;;;;;;18.73;12.27;;;-1.00;99.90;;;;;;6338450;22;20334;-85
2022/03/08 04:57:36;;;;;;;17.33;11.20;;;-1.00;99.90;;;;;;6338672;22;20014;-84
2022/03/08 05:00:08;;;;;;;18.30;11.50;;;-1.00;99.90;;;;;;6326127;22;20019;-85
2022/03/08 05:02:34;;;;;;;16.20;12.13;;;-1.00;99.90;;;;;;6334473;22;20444;-84
2022/03/08 05:04:59;;;;;;;16.25;11.70;;;-1.00;99.90;;;;;;6284613;22;20023;-85
2022/03/08 05:07:25;;;;;;;18.20;12.52;;;-1.00;99.90;;;;;;6284764;22;20019;-85
2022/03/08 05:09:51;;;;;;;16.38;11.90;;;-1.00;99.90;;;;;;6284717;22;20027;-85
2022/03/08 05:12:16;;;;;;;18.88;11.85;;;-1.00;99.90;;;;;;6338272;22;20022;-85
2022/03/08 05:14:42;;;;;;;16.67;12.30;;;-1.10;99.90;;;;;;6338445;22;20015;-84
2022/03/08 05:17:14;;;;;;;17.95;12.35;;;-1.10;99.90;;;;;;6327273;22;20027;-84
2022/03/08 05:19:58;;;;;;;15.05;11.98;;;-1.10;99.90;;;;;;6282534;22;20093;-85
2022/03/08 05:22:24;;;;;;;17.13;12.77;;;-1.10;99.90;;;;;;6310448;22;20061;-86
2022/03/08 05:24:50;;;;;;;17.48;13.10;;;-1.10;99.90;;;;;;6311014;22;20022;-86
2022/03/08 05:27:15;;;;;;;17.92;13.02;;;-1.10;99.90;;;;;;6338557;22;20029;-86
2022/03/08 05:29:41;;;;;;;17.48;12.93;;;-1.20;99.90;;;;;;6338284;22;20026;-86
2022/03/08 05:32:08;;;;;;;16.65;12.55;;;-1.20;99.90;;;;;;6327119;22;20507;-85
2022/03/08 05:34:33;;;;;;;18.95;12.50;;;-1.20;99.90;;;;;;6307962;22;20023;-87
2022/03/08 05:37:18;;;;;;;18.13;13.05;;;-1.20;99.90;;;;;;6327258;22;20019;-86
2022/03/08 05:39:56;;;;;;;17.52;12.65;;;-1.20;99.90;;;;;;6285373;22;20023;-86
2022/03/08 05:42:22;;;;;;;20.15;13.73;;;-1.30;99.90;;;;;;6312530;22;20023;-85
2022/03/08 05:44:48;;;;;;;19.27;13.88;;;-1.30;99.90;;;;;;6312421;22;20131;-85
2022/03/08 05:47:13;;;;;;;19.58;13.55;;;-1.20;99.90;;;;;;6340188;22;20328;-88
2022/03/08 05:49:39;;;;;;;20.15;14.15;;;-1.20;99.90;;;;;;6340374;22;20019;-91
2022/03/08 05:52:05;;;;;;;21.30;14.38;;;-1.20;99.90;;;;;;6287611;22;20021;-90
2022/03/08 05:54:31;;;;;;;18.47;13.60;;;-1.20;99.90;;;;;;6287606;22;20386;-92
2022/03/08 05:56:57;;;;;;;18.85;13.75;;;-1.20;99.90;;;;;;6313019;22;20241;-85
2022/03/08 05:59:22;;;;;;;18.42;13.60;;;-1.20;99.90;;;;;;6340528;22;20026;-87
2022/03/08 06:01:48;;;;;;;21.85;14.25;;;-1.20;99.90;;;;;;6286678;22;20470;-85
2022/03/08 06:04:14;;;;;;;21.58;14.15;;;-1.20;99.90;;;;;;6312211;22;20019;-82
2022/03/08 06:06:41;;;;;;;21.95;13.38;;;-1.20;99.90;;;;;;6340132;22;20410;-87
2022/03/08 06:09:06;;;;;;;19.42;13.38;;;-1.20;99.90;;;;;;6340122;22;20023;-86
2022/03/08 06:11:32;;;;;;;21.08;14.52;;;-1.20;99.90;;;;;;6304799;22;20022;-86
2022/03/08 06:14:10;;;;;;;20.73;13.98;;;-1.20;99.90;;;;;;6343459;22;20015;-85
2022/03/08 06:16:36;;;;;;;25.10;14.52;;;-1.20;99.90;;;;;;6317873;22;20443;-85
2022/03/08 06:19:01;;;;;;;20.73;13.88;;;-1.20;99.90;;;;;;6317884;22;20064;-86
2022/03/08 06:21:27;;;;;;;21.48;14.10;;;-1.10;99.90;;;;;;6343659;22;20023;-87
2022/03/08 06:23:53;;;;;;;19.30;13.18;;;-1.10;99.90;;;;;;6317801;22;20015;-87
2022/03/08 06:26:19;;;;;;;19.23;13.30;;;-1.10;99.90;;;;;;6317727;22;20524;-87
2022/03/08 06:28:54;;;;;;;21.05;14.52;;;-1.00;99.90;;;;;;6317623;22;20019;-87
2022/03/08 06:31:48;;;;;;;23.98;13.77;;;-1.00;99.90;;;;;;6317492;22;20018;-86
2022/03/08 06:34:26;;;;;;;23.75;14.23;;;-1.00;99.90;;;;;;6317582;22;20091;-88
2022/03/08 06:36:51;;;;;;;;;;;-1.00;99.90;;;;;;6316994;22;20026;-88
2022/03/08 06:39:17;;;;;;;22.60;13.77;;;-1.00;99.90;;;;;;6316410;22;19914;-90
2022/03/08 06:41:43;;;;;;;22.30;15.02;;;-1.00;99.90;;;;;;6317615;22;20140;-87
2022/03/08 06:44:09;;;;;;;23.70;15.33;;;-1.00;99.90;;;;;;6343579;22;20018;-89
2022/03/08 06:46:36;;;;;;;23.48;14.35;;;-0.90;99.90;;;;;;6316390;22;20096;-89
2022/03/08 06:49:03;;;;;;;23.92;15.13;;;-0.90;99.90;;;;;;6341442;22;20075;-88
2022/03/08 06:51:29;;;;;;;22.58;15.38;;;-0.90;99.90;;;;;;6317177;22;20082;-89
2022/03/08 06:53:54;;;;;;;24.23;15.35;;;-0.90;99.90;;;;;;6317928;22;20046;-85
2022/03/08 06:56:23;;;;;;;23.70;15.55;;;-0.80;99.90;;;;;;6344306;22;20030;-87
2022/03/08 06:58:49;;;;;;;23.60;15.57;;;-0.70;99.90;;;;;;6343478;22;20023;-87
2022/03/08 07:01:15;;;;;;;23.27;15.38;;;-0.60;99.90;;;;;;6343694;22;20018;-91
2022/03/08 07:03:40;;;;;;;23.70;15.25;;;-0.50;99.90;;;;;;6332617;22;20029;-86
2022/03/08 07:06:06;;;;;;;22.10;14.77;;;-0.40;99.90;;;;;;6317195;22;20018;-86
2022/03/08 07:08:32;;;;;;;24.48;15.60;;;-0.20;99.90;;;;;;6343401;22;20022;-86
2022/03/08 07:10:57;;;;;;;24.17;14.65;;;-0.10;99.90;;;;;;6343055;22;20444;-87
2022/03/08 07:13:23;;;;;;;21.65;14.60;;;0.10;99.90;;;;;;6317265;22;20018;-88
2022/03/08 07:15:49;;;;;;;19.00;13.70;;;0.20;99.90;;;;;;6317385;22;20351;-88
2022/03/08 07:18:14;;;;;;;23.63;14.43;;;0.40;99.90;;;;;;6343087;22;20024;-87
2022/03/08 07:20:40;;;;;;;22.05;14.48;;;0.60;99.90;;;;;;6316772;22;20407;-85
2022/03/08 07:23:06;;;;;;;21.27;13.68;;;0.80;99.90;;;;;;6316963;22;20389;-88
2022/03/08 07:25:31;;;;;;;22.77;14.35;;;1.10;99.90;;;;;;6343160;22;20381;-87
2022/03/08 07:27:57;;;;;;;22.45;14.00;;;1.20;99.90;;;;;;6343455;22;20384;-87
2022/03/08 07:30:22;;;;;;;22.50;14.02;;;1.20;99.90;;;;;;6342959;22;20018;-86
2022/03/08 07:32:50;;;;;;;23.38;14.20;;;1.20;99.90;;;;;;6318619;22;20097;-89
2022/03/08 07:35:16;;;;;;;20.13;13.00;;;1.20;99.90;;;;;;6319001;22;20054;-93
2022/03/08 07:37:42;;;;;;;21.80;13.80;;;1.10;99.90;;;;;;6317850;22;20030;-88
2022/03/08 07:40:08;;;;;;;22.15;14.52;;;1.10;99.90;;;;;;6319004;22;20028;-90
2022/03/08 07:42:52;;;;;;;21.77;14.55;;;1.10;99.90;;;;;;6343126;22;20020;-89
2022/03/08 07:45:18;;;;;;;22.63;14.70;;;1.10;99.90;;;;;;6317159;22;20022;-88
2022/03/08 07:47:44;;;;;;;22.90;15.30;;;1.10;99.90;;;;;;6316606;22;20034;-90
2022/03/08 07:50:10;;;;;;;24.92;16.02;;;1.20;99.90;;;;;;6343021;22;20019;-90
2022/03/08 07:52:36;;;;;;;24.70;15.00;;;1.20;99.90;;;;;;6317369;22;20407;-88
2022/03/08 07:55:03;;;;;;;26.47;15.63;;;1.20;99.90;;;;;;6317093;22;20018;-90
2022/03/08 07:57:38;;;;;;;22.00;14.43;;;1.30;99.90;;;;;;6317063;22;20026;-86
2022/03/08 08:00:53;;;;;;;23.77;14.73;;;1.40;99.90;;;;;;6317131;22;20069;-87
2022/03/08 08:03:24;;;;;;;25.50;15.38;;;1.50;99.90;;;;;;6317591;22;20026;-94
2022/03/08 08:05:50;;;;;;;24.33;15.60;;;1.60;99.90;;;;;;6343998;22;20014;-85
2022/03/08 08:08:16;;;;;;;22.83;14.63;;;1.60;99.90;;;;;;6368400;22;20101;-96
2022/03/08 08:10:41;;;;;;;21.88;15.13;;;1.70;99.90;;;;;;6317077;22;20018;-96
2022/03/08 08:13:07;;;;;;;22.65;14.02;;;1.70;99.90;;;;;;6387798;22;20074;-86
2022/03/08 08:15:36;;;;;;;22.85;14.35;;;1.80;99.90;;;;;;6388473;22;20018;-89
2022/03/08 08:18:10;;;;;;;21.63;13.50;;;1.90;99.90;;;;;;6365327;22;20014;-87
2022/03/08 08:20:37;;;;;;;23.15;14.57;;;2.00;99.90;;;;;;6393237;22;20014;-83
2022/03/08 08:25:38;;;;;;;20.25;13.45;;;2.10;99.90;;;;;;6366609;22;20026;-88
2022/03/08 08:28:06;;;;;;;19.35;12.02;;;2.20;99.90;;;;;;6360363;22;20046;-83
2022/03/08 08:30:32;;;;;;;18.33;11.70;;;2.30;99.90;;;;;;6333080;22;20018;-94
2022/03/08 08:32:57;;;;;;;18.15;12.55;;;2.40;99.90;;;;;;6327900;22;20045;-89
2022/03/08 08:35:23;;;;;;;18.30;11.55;;;2.50;99.90;;;;;;6351974;22;20026;-96
2022/03/08 08:37:49;;;;;;;17.30;11.82;;;2.60;99.90;;;;;;6331250;22;20011;-96
2022/03/08 08:40:15;;;;;;;17.50;12.05;;;2.70;99.90;;;;;;6353842;22;20381;-92
2022/03/08 08:42:41;;;;;;;19.05;12.13;;;2.80;99.90;;;;;;6350592;22;20574;-96
2022/03/08 08:45:07;;;;;;;17.35;11.70;;;2.90;99.90;;;;;;6351131;22;20019;-93
2022/03/08 08:47:38;;;;;;;18.10;11.80;;;3.00;99.90;;;;;;6326116;22;20026;-94
2022/03/08 08:50:04;;;;;;;15.10;11.07;;;3.10;99.90;;;;;;6349678;22;20014;-91
2022/03/08 08:52:30;;;;;;;17.83;11.52;;;3.20;99.90;;;;;;6324960;22;20321;-86
2022/03/08 08:54:56;;;;;;;18.65;11.38;;;3.30;99.90;;;;;;6351174;22;20025;-96
2022/03/08 08:57:21;;;;;;;16.63;11.20;;;3.40;99.90;;;;;;6348358;22;20077;-88
2022/03/08 09:00:07;;;;;;;16.07;11.13;;;3.50;99.90;;;;;;6345607;22;20033;-87
2022/03/08 09:02:49;;;;;;;17.50;11.50;;;3.60;99.90;;;;;;6345699;22;20470;-83
2022/03/08 09:05:14;;;;;;;16.30;10.35;;;3.70;99.90;;;;;;6346993;22;20022;-89
2022/03/08 09:07:40;;;;;;;14.32;9.93;;;3.80;99.90;;;;;;6350854;22;20097;-90
2022/03/08 09:10:09;;;;;;;14.97;10.53;;;3.90;99.90;;;;;;6355906;22;20025;-96
2022/03/08 09:12:35;;;;;;;17.50;10.52;;;4.00;99.90;;;;;;6331266;22;20050;-93
2022/03/08 09:15:02;;;;;;;17.75;11.07;;;4.00;99.90;;;;;;6353095;22;20018;-95
2022/03/08 09:20:05;;;;;;;17.27;11.35;;;4.20;99.90;;;;;;6403026;22;20022;-90
2022/03/08 09:22:31;;;;;;;14.60;10.60;;;4.30;99.90;;;;;;6375622;22;20455;-84
2022/03/08 09:24:57;;;;;;;15.50;10.38;;;4.40;99.90;;;;;;6375210;22;20025;-86
2022/03/08 09:27:23;;;;;;;16.20;11.00;;;4.50;99.90;;;;;;6375629;22;20543;-87
2022/03/08 09:29:48;;;;;;;15.20;10.20;;;4.50;99.90;;;;;;6375652;22;20037;-90
2022/03/08 09:32:14;;;;;;;16.20;10.65;;;4.70;99.90;;;;;;6375702;22;20017;-86
2022/03/08 09:34:40;;;;;;;14.63;9.88;;;4.70;99.90;;;;;;6375655;22;20017;-91
2022/03/08 09:37:07;;;;;;;14.48;10.07;;;4.80;99.90;;;;;;6375594;22;20101;-84
2022/03/08 09:39:34;;;;;;;16.60;10.55;;;4.90;99.90;;;;;;6375550;22;20029;-88
2022/03/08 09:42:02;;;;;;;13.90;9.38;;;4.90;99.90;;;;;;6375338;22;20093;-84
2022/03/08 09:44:29;;;;;;;12.10;9.13;;;5.00;99.90;;;;;;6375612;22;20021;-85
2022/03/08 09:46:54;;;;;;;12.88;8.82;;;5.10;99.90;;;;;;6375449;22;20029;-83
2022/03/08 09:49:20;;;;;;;15.60;9.43;;;5.30;99.90;;;;;;6375568;22;20014;-84
2022/03/08 09:51:46;;;;;;;13.17;9.50;;;5.30;99.90;;;;;;6403873;22;20051;-88
2022/03/08 09:54:13;;;;;;;13.00;9.25;;;5.40;99.90;;;;;;6375151;22;20314;-85
2022/03/08 09:56:38;;;;;;;13.27;9.23;;;5.50;99.90;;;;;;6377074;22;20026;-87
2022/03/08 09:59:04;;;;;;;14.07;8.60;;;5.60;99.90;;;;;;6404253;22;20267;-84
2022/03/08 10:01:31;;;;;;;11.80;7.47;;;5.80;99.90;;;;;;6349977;22;20560;-90
2022/03/08 10:03:56;;;;;;;14.20;8.50;;;5.90;99.90;;;;;;6376406;22;20049;-83
2022/03/08 10:06:22;;;;;;;14.23;7.93;;;6.00;99.90;;;;;;6376532;22;20018;-85
2022/03/08 10:08:48;;;;;;;11.47;8.00;;;6.10;99.90;;;;;;6375946;22;20018;-83
2022/03/08 10:11:16;;;;;;;11.80;8.03;;;6.30;99.90;;;;;;6349356;22;20054;-86
2022/03/08 10:13:49;;;;;;;11.68;7.97;;;6.40;99.90;;;;;;6403712;22;20021;-84
2022/03/08 10:16:22;;;;;;;10.73;7.60;;;6.50;99.90;;;;;;6375212;22;20017;-82
2022/03/08 10:18:50;;;;;;;13.32;7.93;;;6.60;99.90;;;;;;6376382;22;20029;-92
2022/03/08 10:21:40;;;;;;;10.73;7.38;;;6.70;99.90;;;;;;6377963;22;20025;-84
2022/03/08 10:24:13;;;;;;;11.95;7.85;;;6.80;99.90;;;;;;6353282;22;20089;-84
2022/03/08 10:26:46;;;;;;;13.23;7.88;;;6.90;99.70;;;;;;6376649;22;20014;-82
2022/03/08 10:29:12;;;;;;;11.20;7.25;;;6.90;98.90;;;;;;6377816;22;20052;-84
2022/03/08 10:31:39;;;;;;;10.27;6.78;;;7.00;98.50;;;;;;6377100;22;20017;-83
2022/03/08 10:34:07;;;;;;;10.52;7.10;;;7.10;97.90;;;;;;6378645;22;20506;-83
2022/03/08 10:36:35;;;;;;;10.73;6.80;;;7.20;97.90;;;;;;6377594;22;20006;-92
2022/03/08 10:39:15;;;;;;;11.77;6.43;;;7.30;97.30;;;;;;6375713;22;20463;-84
2022/03/08 10:41:50;;;;;;;10.45;6.25;;;7.40;96.30;;;;;;6376103;22;20049;-84
2022/03/08 10:44:31;;;;;;;11.98;6.40;;;7.40;94.80;;;;;;6375150;22;20090;-85
2022/03/08 10:47:03;;;;;;;10.45;6.60;;;7.60;94.40;;;;;;6373629;22;20022;-84
2022/03/08 10:49:29;;;;;;;11.25;5.90;;;7.60;94.10;;;;;;6372445;22;20470;-84
2022/03/08 10:52:00;;;;;;;10.47;6.17;;;7.70;93.90;;;;;;6373375;22;20071;-82
2022/03/08 10:54:26;;;;;;;9.63;5.88;;;7.80;93.60;;;;;;6372628;22;20022;-83
2022/03/08 10:56:51;;;;;;;6.63;4.47;;;7.90;91.90;;;;;;6373956;22;20113;-83
2022/03/08 10:59:18;;;;;;;9.03;5.23;;;7.90;90.40;;;;;;6374770;22;20439;-82
2022/03/08 11:01:43;;;;;;;8.77;5.97;;;8.00;89.60;;;;;;6374674;22;20090;-84
2022/03/08 11:04:23;;;;;;;7.83;5.47;;;8.10;90.10;;;;;;6374678;22;20435;-83
2022/03/08 11:06:52;;;;;;;8.48;5.60;;;8.10;89.20;;;;;;6374691;22;20025;-84
2022/03/08 11:09:19;;;;;;;7.00;4.78;;;8.20;88.70;;;;;;6374702;22;20018;-84
2022/03/08 11:11:45;;;;;;;8.30;4.90;;;8.20;87.60;;;;;;6374543;22;20022;-85
2022/03/08 11:14:12;;;;;;;7.35;4.60;;;8.30;85.30;;;;;;6374333;22;20024;-83
2022/03/08 11:16:39;;;;;;;7.60;5.13;;;8.40;84.00;;;;;;6373760;22;20474;-83
2022/03/08 11:19:05;;;;;;;9.98;5.03;;;8.40;82.90;;;;;;6348024;22;20024;-87
2022/03/08 11:21:36;;;;;;;8.63;5.05;;;8.50;83.20;;;;;;6348809;22;20029;-83
2022/03/08 11:24:03;;;;;;;6.93;4.85;;;8.60;82.80;;;;;;6349011;22;20089;-82
2022/03/08 11:26:29;;;;;;;9.10;5.45;;;8.60;81.00;;;;;;6348683;22;20018;-89
2022/03/08 11:28:56;;;;;;;9.05;6.10;;;8.70;80.40;;;;;;6374501;22;20094;-86
2022/03/08 11:31:28;;;;;;;11.68;6.72;;;8.70;79.90;;;;;;6373735;22;20454;-83
2022/03/08 11:34:12;;;;;;;8.00;5.65;;;8.70;80.70;;;;;;6374278;22;20053;-84
2022/03/08 11:36:47;;;;;;;9.35;6.03;;;8.70;80.80;;;;;;6374431;22;20029;-87
2022/03/08 11:39:16;;;;;;;9.63;5.88;;;8.80;82.30;;;;;;6374344;22;20095;-86
2022/03/08 11:41:44;;;;;;;9.93;5.93;;;8.90;81.70;;;;;;6374383;22;20096;-84
2022/03/08 11:44:26;;;;;;;9.15;6.10;;;8.90;81.40;;;;;;6348448;22;20066;-84
2022/03/08 11:47:11;;;;;;;8.43;5.10;;;9.00;81.10;;;;;;6374361;22;20100;-83
2022/03/08 11:49:43;;;;;;;8.18;4.95;;;9.10;78.60;;;;;;6374464;22;20013;-85
2022/03/08 11:52:19;;;;;;;7.60;5.07;;;9.10;77.20;;;;;;6348508;22;20089;-82
2022/03/08 11:54:57;;;;;;;6.90;4.40;;;9.10;77.90;;;;;;6374511;22;20014;-84
2022/03/08 11:57:53;;;;;;;7.00;3.85;;;9.10;77.90;;;;;;6374015;22;20022;-83
2022/03/08 12:00:18;;;;;;;7.75;4.75;;;9.20;76.60;;;;;;6402489;22;20029;-83
2022/03/08 12:02:46;;;;;;;6.37;4.03;;;9.20;75.90;;;;;;6373833;22;20013;-82
2022/03/08 12:05:48;;;;;;;7.97;4.30;;;9.20;75.10;;;;;;6374090;22;20017;-82
2022/03/08 12:08:26;;;;;;;6.97;4.20;;;9.20;74.50;;;;;;6373696;22;20324;-82
2022/03/08 12:11:00;;;;;;;6.80;4.18;;;9.30;74.60;;;;;;6373843;22;20010;-83
2022/03/08 12:13:34;;;;;;;7.13;4.47;;;9.30;74.00;;;;;;6373979;22;20482;-83
2022/03/08 12:16:09;;;;;;;8.50;4.35;;;9.40;74.60;;;;;;6347397;22;20009;-83
2022/03/08 12:18:39;;;;;;;7.78;4.38;;;9.40;73.50;;;;;;6373863;22;20057;-82
2022/03/08 12:21:17;;;;;;;7.28;4.32;;;9.40;73.40;;;;;;6373724;22;20347;-84
2022/03/08 12:24:04;;;;;;;9.63;4.47;;;9.40;72.70;;;;;;6374684;22;20328;-83
2022/03/08 12:26:40;;;;;;;6.85;4.80;;;9.40;73.00;;;;;;6347864;22;20343;-82
2022/03/08 12:29:25;;;;;;;7.70;4.40;;;9.50;72.90;;;;;;6373934;22;20021;-82
2022/03/08 12:31:57;;;;;;;6.50;4.13;;;9.50;73.20;;;;;;6374153;22;20022;-83
2022/03/08 12:34:39;;;;;;;5.95;4.10;;;9.50;72.80;;;;;;6374373;22;20350;-88
2022/03/08 12:37:13;;;;;;;6.80;4.10;;;9.50;73.50;;;;;;6373967;22;20018;-84
2022/03/08 12:39:59;;;;;;;7.63;4.43;;;9.60;71.50;;;;;;6374153;22;20503;-84
2022/03/08 12:42:31;;;;;;;7.32;4.35;;;9.60;73.00;;;;;;6373926;22;20354;-84
2022/03/08 12:45:15;;;;;;;7.50;4.35;;;9.60;73.10;;;;;;6376039;22;20022;-83
2022/03/08 12:48:15;;;;;;;9.32;4.30;;;9.60;72.30;;;;;;6404753;22;20048;-87
2022/03/08 12:50:42;;;;;;;7.57;4.22;;;9.70;72.40;;;;;;6376491;22;20343;-93
2022/03/08 12:53:09;;;;;;;;;;;9.70;73.10;;;;;;6350741;22;20021;-83
2022/03/08 12:55:38;;;;;;;8.07;3.70;;;9.80;74.70;;;;;;6404298;22;19990;-84
2022/03/08 12:58:12;;;;;;;7.15;3.78;;;9.80;73.00;;;;;;6376908;22;20021;-83